Copia in Excel

Francia - National 2 Statistiche Corner e Risultati

TotalCorner fornisce statistiche corner, calendario, risultati, classifica, statistiche cartellini e confronto quote per Francia - National 2. Segui le ultime Francia - National 2 partite con corner a fine partita, corner all'intervallo, gol, cartellini e dati delle partite.

ora d'inizio Casa Punteggio Trasferta Handicap Corner Corner PT Corner asiat. Corner O/U Gol Gol O/U Attacco Tiri Analisi
January 2025
01/25 18:00 Tempo pieno US Le Pays du Valois 2 - 2 Olympique St-Quentin 0.0, -0.5 6 - 5 1 - 3 3.0 Over 90 - 64 14 - 10
01/25 18:00 Tempo pieno US Lege-Cap-Ferret 2 - 2 Blagnac 0.0 3 - 9 2 - 6 2.0, 2.5 Over 88 - 79 10 - 9
01/25 17:30 Tempo pieno Vierzon Foot 5 - 1 Bourges Moulon 0.0, -0.5 4 - 5 3 - 1 2.0, 2.5 Over 85 - 124 13 - 15
01/25 17:30 Tempo pieno Caen PTT 0 - 2 Caen II 0.0, +0.5 3 - 2 1 - 0 2.5 Under 72 - 69 7 - 9
01/25 17:00 Tempo pieno Dijon II 3 - 3 Moulins Yzeure Foot -0.5, -1.0 4 - 2 2 - 2 8.5 Under 2.0, 2.5 Over 62 - 57 6 - 7
01/25 17:00 Tempo pieno Rousset-Ste Victoire 2 - 1 Cannet Rocheville -0.5, -1.0 10 - 6 1 - 4 9.0 Over 2.5, 3.0 Over 78 - 78 15 - 9
01/25 17:00 Tempo pieno Nantes II 1 - 0 Vendee Fontenay 0.0 3 - 3 2 - 2 2.0, 2.5 Under 111 - 138 6 - 5
01/25 17:00 Sable FC 0 - 0 Ussa Vertou 0.0, -0.5 0 - 0 0 - 0 8.5 2.5 - -
01/25 17:00 Tempo pieno AC Seyssinet 2 - 2 Lione II 0.0 8 - 4 0 - 2 2.5 Over 90 - 87 11 - 9
01/25 17:00 Tempo pieno US Orleans II 2 - 1 Chauvigny 0.0, -0.5 2 - 3 0 - 2 2.5 Over 66 - 88 8 - 3
01/25 17:00 Tempo pieno Laval II 1 - 0 Angers II 0.0, -0.5 5 - 3 4 - 1 2.0, 2.5 Under 72 - 69 6 - 1
01/25 17:00 Tempo pieno Drancy 2 - 2 Entente SSG 0.0, -0.5 4 - 1 3 - 1 2.5 Over 68 - 81 11 - 8
01/25 17:00 FC Ouest Tourangeau 0 - 0 Romorantin 0.0, +0.5 0 - 0 0 - 0 2.5, 3.0 - -
01/25 17:00 Tempo pieno Auxerre II 1 - 1 ASPTT Digione -0.5, -1.0 7 - 1 4 - 0 2.5 Under 90 - 71 20 - 7
01/25 17:00 Tempo pieno Troyes II 4 - 1 Montceau -0.5, -1.0 7 - 4 5 - 2 2.0, 2.5 Over 95 - 74 17 - 8
01/25 17:00 Tempo pieno Chassieu Decines 2 - 1 Thonon Evian FC 0.0, +0.5 5 - 2 2 - 0 2.0, 2.5 Over 93 - 71 12 - 7
01/25 17:00 Agde 0 - 0 Olympique d'Ales 0.0 0 - 0 0 - 0 2.5 - -
01/25 17:00 Tempo pieno Espaly 2 - 0 Macon 0.0 6 - 7 4 - 3 2.0, 2.5 Under 76 - 99 11 - 9
01/25 17:00 Tempo pieno Stade Bordelais 0 - 1 Aviron Bayonnais +0.5 3 - 6 0 - 4 8.0 Over 2.0, 2.5 Under 50 - 52 5 - 6
01/25 16:00 Tempo pieno Guingamp II 1 - 3 AF Virois 0.0, -0.5 6 - 5 5 - 4 2.5 Over 98 - 71 8 - 14
01/25 16:00 Tempo pieno Rennes II 0 - 0 Vannes OC 0.0, -0.5 9 - 1 6 - 0 2.5 Under 88 - 67 10 - 8
01/25 16:00 Tempo pieno Tolosa II 2 - 1 Canet Roussillon 0.0, +0.5 3 - 5 1 - 3 2.0, 2.5 Over 105 - 81 8 - 12
01/25 16:00 Tempo pieno Reims II 1 - 4 Dieppe 0.0 2 - 3 2 - 3 2.5 Over 73 - 53 6 - 18
01/25 15:30 Lorient II 0 - 0 PD Ergue Gaberic 0.0,-0.5 0 - 0 0 - 0 2.5 - -
01/25 13:30 Tempo pieno Strasbourg Koenigshoffen 0 - 0 Metz II 0.0 4 - 3 2 - 2 9.0 Under 2.5, 3.0 Under 112 - 96 12 - 4
January 2025
01/19 14:00 Tempo pieno Cannet Rocheville 1 - 1 SUD FC -0.5, -1.0 11 - 8 7 - 3 2.5 Under 68 - 74 14 - 13
01/19 13:30 Tempo pieno Hauts Lyonnais 2 - 2 Espaly 0.0, +0.5 4 - 2 3 - 1 2.0, 2.5 Over 94 - 92 13 - 13
01/18 19:00 Tempo pieno AG Caennaise 3 - 4 CMS Oissel 0.0, +0.5 5 - 5 0 - 5 2.5 Over 74 - 73 8 - 18
01/18 17:00 Tempo pieno Marseille II 0 - 3 US Salinieres -0.5, -1.0 1 - 3 0 - 0 2.5, 3.0 Over 114 - 77 11 - 9
01/18 17:00 Tempo pieno Racing Paris 1 - 1 Neuilly Sur Marne -0.5, -1.0 6 - 3 5 - 0 3.0, 3.5 Under 105 - 80 7 - 8
01/18 17:00 Tempo pieno Sable FC 2 - 2 Laval II 0.0 1 - 5 0 - 3 2.5 Over 84 - 93 5 - 6
01/18 17:00 Tempo pieno Angers II 2 - 0 FC Chauray -0.5 2 - 6 1 - 5 2.0, 2.5 Under 71 - 97 13 - 7
01/18 17:00 Tempo pieno Stade Plabennecois 0 - 0 Rennes II +0.5, +1.0 5 - 6 5 - 4 2.5 Under 78 - 103 8 - 8
01/18 17:00 Tempo pieno RC Calais 1 - 0 IC Croix 0.0 6 - 2 6 - 1 2.5, 3.0 Under 90 - 104 9 - 8
01/18 17:00 Tempo pieno US Ivry 2 - 2 Auxerre II 0.0 5 - 3 0 - 2 2.5 Over 80 - 93 8 - 14
01/18 17:00 Tempo pieno Stade Bordelais 2 - 0 Tolosa II 0.0, +0.5 3 - 4 2 - 1 2.0, 2.5 Under 81 - 93 8 - 5
01/18 17:00 Tempo pieno Olympique d'Ales 3 - 2 Rousset-Ste Victoire 0.0, -0.5 4 - 0 2 - 0 2.5, 3.0 Over 109 - 89 13 - 6
01/18 17:00 Tempo pieno Entente SSG 0 - 0 US Vimy 0.0 4 - 2 1 - 1 3.0, 3.5 Under 99 - 73 3 - 2
01/18 16:00 Tempo pieno Lorient II 3 - 2 Saint-Lo Manche -0.5, -1.0 2 - 4 2 - 0 3.0 Over 97 - 83 15 - 11
01/18 15:00 Tempo pieno Caen II 2 - 1 AS Chatou -0.5 8 - 3 4 - 1 3.0 Push 71 - 50 17 - 6

Resta aggiornato con TotalCorner

Unisciti al nostro canale Telegram gratuito di pronostici. Puoi anche impostare avvisi partita personalizzati.

Pronostici gratis su Telegram Avvisi personalizzati